Olivenhain, California
Current Conditions -  °F | °C
As of 2:11 AM on Wednesday 22 Oct 2014 (Local Time) from KCRQ Reporting Station
Haze Haze  
Wind Chill: 63°   Ceiling: Unl
Heat Index: 63°   Visibility: 6mi
Dew Point: 59°   Wind: 5mph
Humidity: 87%   Direction: 90°E
Pressure: 29.87"   Gusts: NA
Location:  33.0541°N, 117.25°W
Report Text: KCRQ 220911Z 09004KT 6SM BR SCT010 17/15 A2987 RMK AO2 T01720150
Loading
Personal Weather Stations






























Interactive Weather Map
Tropical Storm Tracking
New forecast layout! Learn more

10-Day Weather Forecast

Advertisements
Track Severe Weather on mobile